createdAt,value
2022-08-24T00:02:26.152Z,101695.56
2022-08-24T00:04:55.794Z,101692.22
2022-08-24T00:07:28.209Z,101698.31
2022-08-24T00:09:57.159Z,101706.56
2022-08-24T00:12:27.524Z,101705.38
2022-08-24T00:14:57.472Z,101697.50
2022-08-24T00:17:26.749Z,101702.69
2022-08-24T00:19:56.310Z,101698.44
2022-08-24T00:22:29.548Z,101697.72
2022-08-24T00:25:00.343Z,101706.44
2022-08-24T00:27:31.225Z,101705.75
2022-08-24T00:30:01.794Z,101703.56
2022-08-24T00:32:30.088Z,101699.69
2022-08-24T00:34:59.528Z,101704.56
2022-08-24T00:37:29.995Z,101704.19
2022-08-24T00:39:59.436Z,101699.81
2022-08-24T00:42:27.852Z,101699.53
2022-08-24T00:44:56.037Z,101700.66
2022-08-24T00:47:34.229Z,101701.25
2022-08-24T00:50:11.290Z,101699.91
2022-08-24T00:52:47.824Z,101696.41
2022-08-24T00:55:24.109Z,101695.56
2022-08-24T00:58:02.688Z,101696.03
2022-08-24T01:00:48.879Z,101698.69
2022-08-24T01:03:20.978Z,101692.13
2022-08-24T01:05:52.654Z,101690.53
2022-08-24T01:08:27.666Z,101687.97
2022-08-24T01:11:02.055Z,101696.75
2022-08-24T01:13:36.014Z,101691.19
2022-08-24T01:16:10.073Z,101695.72
2022-08-24T01:18:53.040Z,101697.88
2022-08-24T01:21:27.148Z,101699.16
2022-08-24T01:24:00.764Z,101695.88
2022-08-24T01:26:36.475Z,101693.78
2022-08-24T01:29:11.831Z,101695.28
2022-08-24T01:31:43.845Z,101697.34
2022-08-24T01:34:15.171Z,101703.06
2022-08-24T01:36:48.647Z,101704.34
2022-08-24T01:39:24.614Z,101700.28
2022-08-24T01:41:55.419Z,101702.59
2022-08-24T01:44:27.930Z,101702.31
2022-08-24T01:46:58.828Z,101706.16
2022-08-24T01:49:32.744Z,101707.22
2022-08-24T01:52:07.264Z,101708.47
2022-08-24T01:54:40.234Z,101703.13
2022-08-24T01:57:16.984Z,101708.22
2022-08-24T01:59:48.853Z,101700.22
2022-08-24T02:02:23.465Z,101699.75
2022-08-24T02:04:53.377Z,101697.59
2022-08-24T02:07:25.699Z,101697.59
2022-08-24T02:10:00.185Z,101696.03
2022-08-24T02:12:31.732Z,101701.84
2022-08-24T02:15:03.497Z,101710.19
2022-08-24T02:17:33.984Z,101718.66
2022-08-24T02:20:05.511Z,101713.09
2022-08-24T02:22:35.690Z,101720.38
2022-08-24T02:25:07.735Z,101715.88
2022-08-24T02:27:41.504Z,101714.53
2022-08-24T02:30:13.218Z,101710.66
2022-08-24T02:32:43.853Z,101709.91
2022-08-24T02:35:13.303Z,101714.50
2022-08-24T02:37:44.332Z,101708.75
2022-08-24T02:40:20.222Z,101712.19
2022-08-24T02:42:53.744Z,101699.97
2022-08-24T02:45:24.292Z,101707.47
2022-08-24T02:47:56.288Z,101704.44
2022-08-24T02:50:29.220Z,101708.63
2022-08-24T02:53:00.074Z,101711.03
2022-08-24T02:55:33.128Z,101713.44
2022-08-24T02:58:01.888Z,101709.53
2022-08-24T03:00:31.530Z,101718.06
2022-08-24T03:03:00.747Z,101714.78
2022-08-24T03:05:30.667Z,101717.59
2022-08-24T03:08:01.117Z,101720.97
2022-08-24T03:10:35.323Z,101723.56
2022-08-24T03:13:08.211Z,101718.19
2022-08-24T03:15:39.204Z,101720.78
2022-08-24T03:18:11.778Z,101714.31
2022-08-24T03:20:47.428Z,101720.56
2022-08-24T03:23:17.532Z,101717.78
2022-08-24T03:25:48.603Z,101718.38
2022-08-24T03:28:17.146Z,101710.03
2022-08-24T03:30:48.352Z,101709.63
2022-08-24T03:33:19.265Z,101713.56
2022-08-24T03:35:47.389Z,101721.31
2022-08-24T03:38:18.472Z,101723.47
2022-08-24T03:40:48.805Z,101719.00
2022-08-24T03:43:32.690Z,101712.97
2022-08-24T03:46:05.006Z,101718.53
2022-08-24T03:48:35.079Z,101718.06
2022-08-24T03:51:03.753Z,101713.56
2022-08-24T03:53:36.801Z,101718.91
2022-08-24T03:56:14.899Z,101722.28
2022-08-24T03:58:47.225Z,101727.25
2022-08-24T04:01:19.631Z,101720.84
2022-08-24T04:03:52.426Z,101724.69
2022-08-24T04:06:27.034Z,101736.94
2022-08-24T04:08:58.549Z,101726.88
2022-08-24T04:11:32.570Z,101727.75
2022-08-24T04:14:02.744Z,101727.56
2022-08-24T04:16:36.346Z,101729.97
2022-08-24T04:19:17.410Z,101743.47
2022-08-24T04:21:46.703Z,101736.34
2022-08-24T04:24:17.278Z,101738.75
2022-08-24T04:26:50.794Z,101741.94
2022-08-24T04:29:25.084Z,101740.22
2022-08-24T04:31:55.180Z,101745.31
2022-08-24T04:34:26.204Z,101751.97
2022-08-24T04:36:58.416Z,101759.56
2022-08-24T04:39:34.184Z,101756.38
2022-08-24T04:42:26.626Z,101750.56
2022-08-24T04:44:59.454Z,101751.50
2022-08-24T04:47:32.661Z,101757.78
2022-08-24T04:50:04.307Z,101755.59
2022-08-24T04:52:34.324Z,101763.47
2022-08-24T04:55:04.730Z,101754.44
2022-08-24T04:57:40.462Z,101765.72
2022-08-24T05:00:12.774Z,101760.56
2022-08-24T05:02:46.774Z,101759.88
2022-08-24T05:05:18.395Z,101761.56
2022-08-24T05:07:48.617Z,101757.69
2022-08-24T05:10:16.863Z,101751.72
2022-08-24T05:12:49.775Z,101749.19
2022-08-24T05:15:21.032Z,101748.34
2022-08-24T05:17:51.584Z,101753.44
2022-08-24T05:20:22.526Z,101760.56
2022-08-24T05:22:55.797Z,101759.69
2022-08-24T05:25:24.418Z,101762.94
2022-08-24T05:27:56.237Z,101763.19
2022-08-24T05:30:24.360Z,101762.72
2022-08-24T05:32:54.725Z,101766.59
2022-08-24T05:35:26.095Z,101769.38
2022-08-24T05:37:57.344Z,101762.56
2022-08-24T05:40:34.020Z,101772.44
2022-08-24T05:43:06.050Z,101775.13
2022-08-24T05:45:34.497Z,101778.97
2022-08-24T05:48:04.797Z,101782.53
2022-08-24T05:51:01.934Z,101785.53
2022-08-24T05:53:36.336Z,101786.19
2022-08-24T05:56:06.816Z,101787.81
2022-08-24T05:58:40.132Z,101787.97
2022-08-24T06:01:10.370Z,101784.97
2022-08-24T06:03:40.062Z,101794.31
2022-08-24T06:06:14.002Z,101792.56
2022-08-24T06:08:47.017Z,101795.97
2022-08-24T06:11:30.340Z,101801.38
2022-08-24T06:14:07.201Z,101799.28
2022-08-24T06:16:44.391Z,101807.84
2022-08-24T06:19:16.941Z,101813.63
2022-08-24T06:21:48.267Z,101815.84
2022-08-24T06:24:19.747Z,101817.06
2022-08-24T06:27:09.463Z,101820.91
2022-08-24T06:29:40.054Z,101817.66
2022-08-24T06:32:28.606Z,101827.41
2022-08-24T06:34:58.399Z,101828.41
2022-08-24T06:37:29.380Z,101823.03
2022-08-24T06:39:59.067Z,101818.38
2022-08-24T06:42:29.351Z,101814.13
2022-08-24T06:45:01.656Z,101804.25
2022-08-24T06:47:30.290Z,101810.50
2022-08-24T06:50:06.513Z,101807.16
2022-08-24T06:52:39.759Z,101810.97
2022-08-24T06:55:11.007Z,101810.25
2022-08-24T06:57:39.375Z,101812.19
2022-08-24T07:00:11.288Z,101816.44
2022-08-24T07:02:42.589Z,101822.81
2022-08-24T07:05:12.034Z,101820.16
2022-08-24T07:08:01.339Z,101816.69
2022-08-24T07:10:31.559Z,101828.91
2022-08-24T07:13:02.272Z,101829.38
2022-08-24T07:15:33.571Z,101834.69
2022-08-24T07:18:15.964Z,101830.16
2022-08-24T07:20:51.340Z,101833.63
2022-08-24T07:23:42.107Z,101833.00
2022-08-24T07:26:21.225Z,101828.72
2022-08-24T07:29:00.251Z,101834.75
2022-08-24T07:31:35.628Z,101843.75
2022-08-24T07:34:14.362Z,101842.28
2022-08-24T07:36:45.032Z,101847.22
2022-08-24T07:39:14.780Z,101847.47
2022-08-24T07:42:10.886Z,101847.47
2022-08-24T07:44:38.058Z,101843.28
2022-08-24T07:47:34.320Z,101850.63
2022-08-24T07:50:01.135Z,101847.31
2022-08-24T07:52:33.113Z,101841.66
2022-08-24T07:55:06.682Z,101847.16
2022-08-24T07:57:47.651Z,101842.16
2022-08-24T08:00:21.516Z,101852.97
2022-08-24T08:02:59.420Z,101850.94
2022-08-24T08:05:29.363Z,101853.91
2022-08-24T08:08:00.867Z,101857.91
2022-08-24T08:10:31.921Z,101859.38
2022-08-24T08:13:01.052Z,101862.75
2022-08-24T08:15:30.891Z,101870.44
2022-08-24T08:18:09.807Z,101872.75
2022-08-24T08:20:43.861Z,101877.84
2022-08-24T08:23:34.497Z,101877.84
2022-08-24T08:26:15.678Z,101885.03
2022-08-24T08:29:01.098Z,101883.31
2022-08-24T08:31:34.621Z,101881.63
2022-08-24T08:34:07.490Z,101885.63
2022-08-24T08:36:40.570Z,101882.00
2022-08-24T08:39:13.465Z,101874.88
2022-08-24T08:42:14.477Z,101883.81
2022-08-24T08:44:54.263Z,101882.69
2022-08-24T08:47:53.263Z,101879.69
2022-08-24T08:50:35.812Z,101881.84
2022-08-24T08:53:42.544Z,101877.97
2022-08-24T08:56:23.779Z,101880.53
2022-08-24T08:59:04.193Z,101883.69
2022-08-24T09:02:10.717Z,101882.97
2022-08-24T09:05:16.153Z,101878.88
2022-08-24T09:08:00.409Z,101876.69
2022-08-24T09:10:46.621Z,101880.34
2022-08-24T09:13:39.319Z,101879.84
2022-08-24T09:16:33.624Z,101878.03
2022-08-24T09:19:25.954Z,101886.41
2022-08-24T09:22:15.292Z,101888.50
2022-08-24T09:25:24.795Z,101878.56
2022-08-24T09:28:43.774Z,101886.44
2022-08-24T09:31:37.922Z,101879.53
2022-08-24T09:34:20.493Z,101882.91
2022-08-24T09:37:17.555Z,101878.56
2022-08-24T09:40:03.562Z,101883.06
2022-08-24T09:43:13.428Z,101884.28
2022-08-24T09:46:13.898Z,101884.53
2022-08-24T09:49:15.347Z,101880.41
2022-08-24T09:52:11.266Z,101893.25
2022-08-24T09:55:14.163Z,101886.34
2022-08-24T09:58:03.803Z,101880.75
2022-08-24T10:00:41.967Z,101881.63
2022-08-24T10:03:40.288Z,101882.84
2022-08-24T10:06:29.988Z,101879.81
2022-08-24T10:09:25.197Z,101878.03
2022-08-24T10:12:06.424Z,101875.84
2022-08-24T10:14:52.941Z,101873.41
2022-08-24T10:17:35.842Z,101876.56
2022-08-24T10:20:24.081Z,101870.00
2022-08-24T10:23:22.119Z,101876.22
2022-08-24T10:25:58.198Z,101874.28
2022-08-24T10:29:00.922Z,101874.66
2022-08-24T10:31:43.834Z,101865.44
2022-08-24T10:34:32.532Z,101869.19
2022-08-24T10:37:42.319Z,101868.81
2022-08-24T10:40:35.113Z,101876.72
2022-08-24T10:43:35.938Z,101870.63
2022-08-24T10:46:39.799Z,101872.22
2022-08-24T10:49:52.182Z,101861.13
2022-08-24T10:52:48.897Z,101858.47
2022-08-24T10:55:22.455Z,101868.31
2022-08-24T10:58:08.314Z,101870.03
2022-08-24T11:00:37.917Z,101864.69
2022-08-24T11:03:11.145Z,101857.50
2022-08-24T11:05:43.701Z,101859.53
2022-08-24T11:08:21.579Z,101852.72
2022-08-24T11:11:09.253Z,101853.44
2022-08-24T11:13:38.999Z,101850.41
2022-08-24T11:16:07.767Z,101854.38
2022-08-24T11:18:49.653Z,101852.81
2022-08-24T11:21:34.909Z,101855.94
2022-08-24T11:24:07.161Z,101857.53
2022-08-24T11:26:53.603Z,101854.59
2022-08-24T11:29:23.230Z,101850.13
2022-08-24T11:31:52.781Z,101849.34
2022-08-24T11:34:33.269Z,101856.16
2022-08-24T11:37:01.522Z,101854.09
2022-08-24T11:39:36.190Z,101856.16
2022-08-24T11:42:29.224Z,101851.03
2022-08-24T11:45:08.840Z,101848.81
2022-08-24T11:47:49.668Z,101856.47
2022-08-24T11:50:30.606Z,101849.22
2022-08-24T11:53:12.070Z,101850.38
2022-08-24T11:55:57.178Z,101852.25
2022-08-24T11:58:39.732Z,101847.25
2022-08-24T12:01:18.805Z,101845.75
2022-08-24T12:04:02.455Z,101840.03
2022-08-24T12:06:44.250Z,101844.25
2022-08-24T12:09:25.839Z,101848.47
2022-08-24T12:12:03.734Z,101846.56
2022-08-24T12:14:38.375Z,101844.63
2022-08-24T12:17:16.336Z,101840.78
2022-08-24T12:19:50.361Z,101841.03
2022-08-24T12:22:21.105Z,101841.38
2022-08-24T12:24:54.647Z,101839.22
2022-08-24T12:27:26.686Z,101833.88
2022-08-24T12:30:00.430Z,101835.81
2022-08-24T12:32:37.640Z,101834.44
2022-08-24T12:35:10.216Z,101834.13
2022-08-24T12:37:44.495Z,101827.94
2022-08-24T12:40:22.961Z,101821.69
2022-08-24T12:42:56.241Z,101824.47
2022-08-24T12:45:26.025Z,101827.25
2022-08-24T12:47:59.942Z,101830.59
2022-08-24T12:50:33.344Z,101835.22
2022-08-24T12:53:32.190Z,101826.56
2022-08-24T12:56:24.080Z,101831.72
2022-08-24T12:59:00.310Z,101825.16
2022-08-24T13:01:35.761Z,101835.69
2022-08-24T13:04:09.257Z,101828.38
2022-08-24T13:06:42.394Z,101835.34
2022-08-24T13:09:15.122Z,101833.06
2022-08-24T13:11:43.647Z,101825.56
2022-08-24T13:14:22.209Z,101826.28
2022-08-24T13:17:12.622Z,101832.44
2022-08-24T13:19:45.728Z,101834.50
2022-08-24T13:22:32.056Z,101834.97
2022-08-24T13:25:02.932Z,101832.94
2022-08-24T13:28:04.201Z,101836.00
2022-08-24T13:31:05.914Z,101835.13
2022-08-24T13:33:46.460Z,101827.50
2022-08-24T13:36:51.684Z,101822.06
2022-08-24T13:39:56.659Z,101823.09
2022-08-24T13:42:55.562Z,101820.53
2022-08-24T13:45:34.224Z,101825.16
2022-08-24T13:48:30.064Z,101825.63
2022-08-24T13:51:37.961Z,101824.41
2022-08-24T13:54:29.748Z,101822.25
2022-08-24T13:57:11.810Z,101825.66
2022-08-24T14:00:01.281Z,101823.41
2022-08-24T14:02:46.947Z,101826.56
2022-08-24T14:05:31.785Z,101832.94
2022-08-24T14:08:15.253Z,101832.47
2022-08-24T14:10:57.446Z,101826.31
2022-08-24T14:13:41.185Z,101821.50
2022-08-24T14:16:49.543Z,101821.50
2022-08-24T14:19:25.276Z,101824.88
2022-08-24T14:22:10.384Z,101826.44
2022-08-24T14:24:49.320Z,101832.84
2022-08-24T14:27:38.633Z,101828.34
2022-08-24T14:30:45.536Z,101828.00
2022-08-24T14:33:22.910Z,101830.47
2022-08-24T14:36:19.398Z,101823.97
2022-08-24T14:38:59.707Z,101824.47
2022-08-24T14:41:49.384Z,101820.53
2022-08-24T14:44:43.129Z,101821.81
2022-08-24T14:47:26.851Z,101827.63
2022-08-24T14:50:14.985Z,101820.00
2022-08-24T14:53:19.965Z,101821.59
2022-08-24T14:56:01.191Z,101814.75
2022-08-24T14:58:42.083Z,101813.84
2022-08-24T15:01:40.745Z,101812.38
2022-08-24T15:04:30.703Z,101816.78
2022-08-24T15:07:28.592Z,101814.25
2022-08-24T15:10:01.899Z,101815.03
2022-08-24T15:12:44.484Z,101811.44
2022-08-24T15:15:24.127Z,101813.66
2022-08-24T15:18:09.671Z,101817.06
2022-08-24T15:20:57.311Z,101809.22
2022-08-24T15:23:37.474Z,101817.06
2022-08-24T15:26:13.631Z,101807.63
2022-08-24T15:28:55.202Z,101809.69
2022-08-24T15:31:26.141Z,101803.81
2022-08-24T15:34:00.775Z,101801.69
2022-08-24T15:36:33.268Z,101804.59
2022-08-24T15:39:05.255Z,101796.19
2022-08-24T15:41:37.987Z,101805.75
2022-08-24T15:44:20.416Z,101795.56
2022-08-24T15:46:56.479Z,101796.09
2022-08-24T15:49:29.460Z,101800.00
2022-08-24T15:52:02.876Z,101799.09
2022-08-24T15:54:40.925Z,101795.97
2022-08-24T15:57:27.693Z,101798.44
2022-08-24T16:00:09.527Z,101800.34
2022-08-24T16:02:39.479Z,101798.31
2022-08-24T16:05:22.156Z,101794.28
2022-08-24T16:08:14.339Z,101793.94
2022-08-24T16:10:44.905Z,101794.78
2022-08-24T16:13:26.903Z,101795.81
2022-08-24T16:16:06.179Z,101789.91
2022-08-24T16:19:08.544Z,101790.78
2022-08-24T16:21:58.550Z,101792.22
2022-08-24T16:24:38.456Z,101794.03
2022-08-24T16:27:11.701Z,101799.53
2022-08-24T16:29:56.285Z,101797.06
2022-08-24T16:32:53.748Z,101791.47
2022-08-24T16:35:26.954Z,101789.81
2022-08-24T16:37:57.393Z,101799.72
2022-08-24T16:40:31.917Z,101797.28
2022-08-24T16:43:05.179Z,101800.09
2022-08-24T16:45:36.178Z,101800.72
2022-08-24T16:48:07.399Z,101793.91
2022-08-24T16:50:38.400Z,101800.13
2022-08-24T16:53:07.330Z,101798.16
2022-08-24T16:55:39.884Z,101803.19
2022-08-24T16:58:08.659Z,101803.44
2022-08-24T17:00:39.984Z,101804.22
2022-08-24T17:03:15.059Z,101798.25
2022-08-24T17:05:51.092Z,101809.72
2022-08-24T17:08:24.707Z,101799.00
2022-08-24T17:10:56.152Z,101802.88
2022-08-24T17:16:18.652Z,101798.88
2022-08-24T17:18:49.373Z,101804.72
2022-08-24T17:21:18.281Z,101806.13
2022-08-24T17:23:49.448Z,101801.56
2022-08-24T17:26:21.460Z,101802.34
2022-08-24T17:28:54.688Z,101802.06
2022-08-24T17:31:24.886Z,101803.69
2022-08-24T17:33:54.614Z,101810.13
2022-08-24T17:36:25.035Z,101819.09
2022-08-24T17:38:56.351Z,101813.75
2022-08-24T17:41:26.648Z,101812.31
2022-08-24T17:44:02.216Z,101820.16
2022-08-24T17:46:31.815Z,101821.56
2022-08-24T17:49:06.302Z,101828.28
2022-08-24T17:51:41.523Z,101832.19
2022-08-24T17:54:10.377Z,101828.81
2022-08-24T17:56:42.694Z,101843.94
2022-08-24T17:59:26.410Z,101838.59
2022-08-24T18:02:02.563Z,101826.19
2022-08-24T18:04:43.991Z,101828.19
2022-08-24T18:07:22.179Z,101836.28
2022-08-24T18:10:15.540Z,101835.13
2022-08-24T18:12:44.360Z,101831.47
2022-08-24T18:15:35.448Z,101842.13
2022-08-24T18:18:09.944Z,101846.56
2022-08-24T18:20:43.607Z,101847.84
2022-08-24T18:23:15.051Z,101849.06
2022-08-24T18:25:53.829Z,101844.06
2022-08-24T18:28:24.300Z,101850.59
2022-08-24T18:30:55.674Z,101842.59
2022-08-24T18:33:27.760Z,101852.31
2022-08-24T18:36:04.157Z,101861.19
2022-08-24T18:38:35.408Z,101855.34
2022-08-24T18:41:04.753Z,101863.38
2022-08-24T18:43:35.777Z,101870.75
2022-08-24T18:46:07.103Z,101869.56
2022-08-24T18:48:38.991Z,101861.16
2022-08-24T18:51:10.385Z,101867.59
2022-08-24T18:53:40.386Z,101864.47
2022-08-24T18:56:12.657Z,101866.09
2022-08-24T18:58:47.398Z,101864.34
2022-08-24T19:01:18.950Z,101862.72
2022-08-24T19:03:47.324Z,101876.03
2022-08-24T19:06:23.208Z,101877.63
2022-08-24T19:08:53.332Z,101881.19
2022-08-24T19:11:26.000Z,101884.78
2022-08-24T19:13:54.789Z,101878.56
2022-08-24T19:16:31.167Z,101885.47
2022-08-24T19:19:01.536Z,101886.22
2022-08-24T19:21:41.829Z,101887.56
2022-08-24T19:24:13.376Z,101889.31
2022-08-24T19:26:43.667Z,101893.19
2022-08-24T19:29:12.809Z,101892.63
2022-08-24T19:31:43.783Z,101898.44
2022-08-24T19:34:14.349Z,101894.72
2022-08-24T19:36:47.638Z,101896.09
2022-08-24T19:39:18.577Z,101904.72
2022-08-24T19:42:06.355Z,101902.25
2022-08-24T19:44:57.715Z,101902.03
2022-08-24T19:47:28.492Z,101901.25
2022-08-24T19:49:58.811Z,101895.75
2022-08-24T19:52:34.753Z,101896.09
2022-08-24T19:55:06.535Z,101897.44
2022-08-24T19:57:44.904Z,101900.59
2022-08-24T20:00:31.783Z,101896.34
2022-08-24T20:03:08.703Z,101886.16
2022-08-24T20:05:37.942Z,101884.38
2022-08-24T20:08:11.442Z,101884.38
2022-08-24T20:10:42.375Z,101893.00
2022-08-24T20:13:13.381Z,101884.13
2022-08-24T20:15:44.704Z,101882.34
2022-08-24T20:18:17.835Z,101888.19
2022-08-24T20:20:58.076Z,101881.75
2022-08-24T20:23:31.282Z,101878.59
2022-08-24T20:26:03.990Z,101891.16
2022-08-24T20:28:40.525Z,101875.81
2022-08-24T20:31:10.637Z,101875.88
2022-08-24T20:33:39.128Z,101875.88
2022-08-24T20:36:08.310Z,101886.72
2022-08-24T20:38:37.581Z,101884.03
2022-08-24T20:41:06.069Z,101873.94
2022-08-24T20:43:34.354Z,101882.00
2022-08-24T20:46:02.794Z,101872.50
2022-08-24T20:48:35.995Z,101874.69
2022-08-24T20:51:05.726Z,101876.91
2022-08-24T20:53:33.923Z,101874.69
2022-08-24T20:56:10.217Z,101881.13
2022-08-24T20:58:39.584Z,101877.41
2022-08-24T21:01:08.354Z,101878.25
2022-08-24T21:03:36.822Z,101883.22
2022-08-24T21:06:05.891Z,101874.50
2022-08-24T21:08:34.121Z,101867.47
2022-08-24T21:11:03.843Z,101868.31
2022-08-24T21:13:32.126Z,101876.34
2022-08-24T21:16:00.871Z,101877.22
2022-08-24T21:18:29.278Z,101880.66
2022-08-24T21:21:03.701Z,101880.16
2022-08-24T21:23:33.232Z,101875.94
2022-08-24T21:26:04.425Z,101878.03
2022-08-24T21:28:33.374Z,101873.88
2022-08-24T21:31:05.285Z,101866.91
2022-08-24T21:33:51.340Z,101869.13
2022-08-24T21:36:20.543Z,101869.63
2022-08-24T21:38:48.489Z,101866.19
2022-08-24T21:41:17.916Z,101867.91
2022-08-24T21:43:46.043Z,101869.25
2022-08-24T21:46:14.586Z,101873.13
2022-08-24T21:48:42.845Z,101869.75
2022-08-24T21:51:11.290Z,101866.69
2022-08-24T21:53:39.541Z,101869.75
2022-08-24T21:56:08.152Z,101865.84
2022-08-24T21:58:37.662Z,101877.63
2022-08-24T22:01:05.864Z,101874.56
2022-08-24T22:03:39.793Z,101870.09
2022-08-24T22:06:09.286Z,101868.41
2022-08-24T22:08:38.919Z,101864.75
2022-08-24T22:11:12.789Z,101871.19
2022-08-24T22:13:47.186Z,101867.31
2022-08-24T22:16:15.743Z,101870.59
2022-08-24T22:18:44.116Z,101861.59
2022-08-24T22:21:18.114Z,101869.13
2022-08-24T22:23:48.104Z,101861.88
2022-08-24T22:26:17.733Z,101863.53
2022-08-24T22:28:48.987Z,101856.84
2022-08-24T22:31:21.233Z,101859.66
2022-08-24T22:33:51.661Z,101859.31
2022-08-24T22:36:20.894Z,101861.50
2022-08-24T22:38:50.903Z,101855.06
2022-08-24T22:41:22.339Z,101849.72
2022-08-24T22:44:11.987Z,101846.41
2022-08-24T22:46:41.661Z,101844.38
2022-08-24T22:49:11.966Z,101844.38
2022-08-24T22:51:40.871Z,101841.81
2022-08-24T22:54:13.190Z,101846.31
2022-08-24T22:56:48.107Z,101840.13
2022-08-24T22:59:23.550Z,101845.72
2022-08-24T23:01:57.368Z,101844.03
2022-08-24T23:04:32.251Z,101844.53
2022-08-24T23:07:04.224Z,101842.81
2022-08-24T23:09:36.633Z,101843.91
2022-08-24T23:12:23.746Z,101845.84
2022-08-24T23:14:55.000Z,101845.03
2022-08-24T23:17:36.746Z,101838.59
2022-08-24T23:20:09.289Z,101834.94
2022-08-24T23:22:43.779Z,101841.63
2022-08-24T23:25:15.013Z,101846.34
2022-08-24T23:27:46.613Z,101841.38
2022-08-24T23:30:22.730Z,101837.38
2022-08-24T23:32:52.553Z,101836.53
2022-08-24T23:35:21.082Z,101840.41
2022-08-24T23:37:49.514Z,101833.16
2022-08-24T23:40:20.765Z,101837.03
2022-08-24T23:42:50.965Z,101840.06
2022-08-24T23:45:28.273Z,101835.59
2022-08-24T23:48:00.342Z,101831.34
2022-08-24T23:50:33.216Z,101829.66
2022-08-24T23:53:04.017Z,101824.66
2022-08-24T23:55:33.814Z,101823.78
2022-08-24T23:58:04.677Z,101815.19
